sensor_id;sensor_type;location;lat;lon;timestamp;P1;durP1;ratioP1;P2;durP2;ratioP2
69822;SDS011;57119;52.516;13.508;2023-08-17T00:02:24;6.18;;;2.65;;
69822;SDS011;57119;52.516;13.508;2023-08-17T00:04:50;7.20;;;3.00;;
69822;SDS011;57119;52.516;13.508;2023-08-17T00:07:16;7.47;;;3.13;;
69822;SDS011;57119;52.516;13.508;2023-08-17T00:09:41;7.25;;;2.63;;
69822;SDS011;57119;52.516;13.508;2023-08-17T00:12:07;7.47;;;3.30;;
69822;SDS011;57119;52.516;13.508;2023-08-17T00:14:32;6.28;;;3.13;;
69822;SDS011;57119;52.516;13.508;2023-08-17T00:16:58;8.60;;;3.00;;
69822;SDS011;57119;52.516;13.508;2023-08-17T00:19:23;7.33;;;3.10;;
69822;SDS011;57119;52.516;13.508;2023-08-17T00:21:48;8.23;;;3.03;;
69822;SDS011;57119;52.516;13.508;2023-08-17T00:24:14;9.93;;;3.10;;
69822;SDS011;57119;52.516;13.508;2023-08-17T00:26:39;7.87;;;2.90;;
69822;SDS011;57119;52.516;13.508;2023-08-17T00:29:04;7.43;;;3.07;;
69822;SDS011;57119;52.516;13.508;2023-08-17T00:31:30;7.13;;;2.93;;
69822;SDS011;57119;52.516;13.508;2023-08-17T00:33:55;6.97;;;2.50;;
69822;SDS011;57119;52.516;13.508;2023-08-17T00:36:20;6.77;;;2.50;;
69822;SDS011;57119;52.516;13.508;2023-08-17T00:38:46;7.78;;;2.50;;
69822;SDS011;57119;52.516;13.508;2023-08-17T00:41:11;7.10;;;2.87;;
69822;SDS011;57119;52.516;13.508;2023-08-17T00:43:36;7.83;;;3.20;;
69822;SDS011;57119;52.516;13.508;2023-08-17T00:46:02;8.87;;;2.97;;
69822;SDS011;57119;52.516;13.508;2023-08-17T00:48:28;7.97;;;3.05;;
69822;SDS011;57119;52.516;13.508;2023-08-17T00:50:54;7.20;;;2.60;;
69822;SDS011;57119;52.516;13.508;2023-08-17T00:53:21;7.40;;;3.00;;
69822;SDS011;57119;52.516;13.508;2023-08-17T00:55:47;5.72;;;2.95;;
69822;SDS011;57119;52.516;13.508;2023-08-17T00:58:14;7.05;;;3.10;;
69822;SDS011;57119;52.516;13.508;2023-08-17T01:00:39;6.65;;;2.58;;
69822;SDS011;57119;52.516;13.508;2023-08-17T01:03:05;9.03;;;2.90;;
69822;SDS011;57119;52.516;13.508;2023-08-17T01:05:31;9.90;;;3.30;;
69822;SDS011;57119;52.516;13.508;2023-08-17T01:07:58;10.32;;;2.92;;
69822;SDS011;57119;52.516;13.508;2023-08-17T01:10:25;13.65;;;3.67;;
69822;SDS011;57119;52.516;13.508;2023-08-17T01:13:10;7.40;;;2.53;;
69822;SDS011;57119;52.516;13.508;2023-08-17T01:15:40;7.60;;;2.45;;
69822;SDS011;57119;52.516;13.508;2023-08-17T01:18:15;12.20;;;2.90;;
69822;SDS011;57119;52.516;13.508;2023-08-17T01:20:47;6.78;;;2.80;;
69822;SDS011;57119;52.516;13.508;2023-08-17T01:23:14;7.47;;;3.35;;
69822;SDS011;57119;52.516;13.508;2023-08-17T01:25:39;6.83;;;2.60;;
69822;SDS011;57119;52.516;13.508;2023-08-17T01:28:05;8.05;;;3.00;;
69822;SDS011;57119;52.516;13.508;2023-08-17T01:30:36;9.17;;;2.67;;
69822;SDS011;57119;52.516;13.508;2023-08-17T01:33:08;8.50;;;3.28;;
69822;SDS011;57119;52.516;13.508;2023-08-17T01:35:40;7.38;;;3.15;;
69822;SDS011;57119;52.516;13.508;2023-08-17T01:38:18;7.77;;;2.90;;
69822;SDS011;57119;52.516;13.508;2023-08-17T01:40:46;7.25;;;2.85;;
69822;SDS011;57119;52.516;13.508;2023-08-17T01:43:12;10.00;;;3.00;;
69822;SDS011;57119;52.516;13.508;2023-08-17T01:45:39;7.30;;;2.83;;
69822;SDS011;57119;52.516;13.508;2023-08-17T01:48:05;8.47;;;3.10;;
69822;SDS011;57119;52.516;13.508;2023-08-17T01:50:30;8.23;;;2.92;;
69822;SDS011;57119;52.516;13.508;2023-08-17T01:52:55;8.33;;;3.00;;
69822;SDS011;57119;52.516;13.508;2023-08-17T01:55:21;9.07;;;2.90;;
69822;SDS011;57119;52.516;13.508;2023-08-17T01:57:48;5.78;;;2.58;;
69822;SDS011;57119;52.516;13.508;2023-08-17T02:00:13;8.13;;;2.80;;
69822;SDS011;57119;52.516;13.508;2023-08-17T02:02:39;8.77;;;3.28;;
69822;SDS011;57119;52.516;13.508;2023-08-17T02:05:05;7.63;;;2.60;;
69822;SDS011;57119;52.516;13.508;2023-08-17T02:07:31;8.98;;;2.88;;
69822;SDS011;57119;52.516;13.508;2023-08-17T02:09:56;6.83;;;2.53;;
69822;SDS011;57119;52.516;13.508;2023-08-17T02:12:22;6.40;;;2.43;;
69822;SDS011;57119;52.516;13.508;2023-08-17T02:14:47;7.07;;;2.70;;
69822;SDS011;57119;52.516;13.508;2023-08-17T02:17:12;7.03;;;2.72;;
69822;SDS011;57119;52.516;13.508;2023-08-17T02:19:38;8.77;;;2.90;;
69822;SDS011;57119;52.516;13.508;2023-08-17T02:22:04;9.33;;;3.13;;
69822;SDS011;57119;52.516;13.508;2023-08-17T02:24:30;7.63;;;2.70;;
69822;SDS011;57119;52.516;13.508;2023-08-17T02:26:55;8.53;;;2.80;;
69822;SDS011;57119;52.516;13.508;2023-08-17T02:29:20;6.78;;;3.05;;
69822;SDS011;57119;52.516;13.508;2023-08-17T02:31:46;8.83;;;2.90;;
69822;SDS011;57119;52.516;13.508;2023-08-17T02:34:11;7.43;;;3.23;;
69822;SDS011;57119;52.516;13.508;2023-08-17T02:36:36;8.07;;;2.97;;
69822;SDS011;57119;52.516;13.508;2023-08-17T02:39:02;6.90;;;2.47;;
69822;SDS011;57119;52.516;13.508;2023-08-17T02:41:28;7.05;;;2.78;;
69822;SDS011;57119;52.516;13.508;2023-08-17T02:43:55;6.40;;;2.65;;
69822;SDS011;57119;52.516;13.508;2023-08-17T02:46:20;7.27;;;2.67;;
69822;SDS011;57119;52.516;13.508;2023-08-17T02:48:46;8.00;;;2.63;;
69822;SDS011;57119;52.516;13.508;2023-08-17T02:51:12;8.77;;;3.22;;
69822;SDS011;57119;52.516;13.508;2023-08-17T02:53:38;9.93;;;3.10;;
69822;SDS011;57119;52.516;13.508;2023-08-17T02:56:03;7.10;;;2.95;;
69822;SDS011;57119;52.516;13.508;2023-08-17T02:58:29;8.17;;;2.80;;
69822;SDS011;57119;52.516;13.508;2023-08-17T03:00:54;6.80;;;3.10;;
69822;SDS011;57119;52.516;13.508;2023-08-17T03:03:20;6.87;;;3.17;;
69822;SDS011;57119;52.516;13.508;2023-08-17T03:05:45;7.47;;;2.97;;
69822;SDS011;57119;52.516;13.508;2023-08-17T03:08:10;7.67;;;2.80;;
69822;SDS011;57119;52.516;13.508;2023-08-17T03:10:36;7.60;;;2.70;;
69822;SDS011;57119;52.516;13.508;2023-08-17T03:13:02;9.88;;;3.10;;
69822;SDS011;57119;52.516;13.508;2023-08-17T03:15:28;8.80;;;2.97;;
69822;SDS011;57119;52.516;13.508;2023-08-17T03:17:53;7.87;;;2.93;;
69822;SDS011;57119;52.516;13.508;2023-08-17T03:20:18;10.37;;;3.03;;
69822;SDS011;57119;52.516;13.508;2023-08-17T03:22:44;5.22;;;2.38;;
69822;SDS011;57119;52.516;13.508;2023-08-17T03:25:09;7.77;;;2.67;;
69822;SDS011;57119;52.516;13.508;2023-08-17T03:27:34;7.60;;;2.87;;
69822;SDS011;57119;52.516;13.508;2023-08-17T03:30:00;8.27;;;2.50;;
69822;SDS011;57119;52.516;13.508;2023-08-17T03:32:25;7.73;;;2.40;;
69822;SDS011;57119;52.516;13.508;2023-08-17T03:34:50;6.80;;;2.40;;
69822;SDS011;57119;52.516;13.508;2023-08-17T03:37:16;7.80;;;2.95;;
69822;SDS011;57119;52.516;13.508;2023-08-17T03:39:41;5.67;;;2.30;;
69822;SDS011;57119;52.516;13.508;2023-08-17T03:42:06;6.97;;;2.30;;
69822;SDS011;57119;52.516;13.508;2023-08-17T03:44:32;6.50;;;2.20;;
69822;SDS011;57119;52.516;13.508;2023-08-17T03:46:57;6.37;;;2.03;;
69822;SDS011;57119;52.516;13.508;2023-08-17T03:49:22;7.20;;;2.60;;
69822;SDS011;57119;52.516;13.508;2023-08-17T03:51:48;7.10;;;2.40;;
69822;SDS011;57119;52.516;13.508;2023-08-17T03:54:13;6.90;;;2.20;;
69822;SDS011;57119;52.516;13.508;2023-08-17T03:56:38;6.13;;;2.37;;
69822;SDS011;57119;52.516;13.508;2023-08-17T03:59:04;6.90;;;2.13;;
69822;SDS011;57119;52.516;13.508;2023-08-17T04:01:29;7.80;;;2.60;;
69822;SDS011;57119;52.516;13.508;2023-08-17T04:03:55;6.25;;;2.50;;
69822;SDS011;57119;52.516;13.508;2023-08-17T04:06:20;6.60;;;2.10;;
69822;SDS011;57119;52.516;13.508;2023-08-17T04:08:46;5.20;;;2.27;;
69822;SDS011;57119;52.516;13.508;2023-08-17T04:11:11;6.88;;;2.53;;
69822;SDS011;57119;52.516;13.508;2023-08-17T04:13:36;10.60;;;2.43;;
69822;SDS011;57119;52.516;13.508;2023-08-17T04:16:02;7.43;;;2.47;;
69822;SDS011;57119;52.516;13.508;2023-08-17T04:18:27;6.97;;;2.40;;
69822;SDS011;57119;52.516;13.508;2023-08-17T04:20:53;8.27;;;2.07;;
69822;SDS011;57119;52.516;13.508;2023-08-17T04:23:19;7.70;;;2.42;;
69822;SDS011;57119;52.516;13.508;2023-08-17T04:25:46;7.43;;;2.53;;
69822;SDS011;57119;52.516;13.508;2023-08-17T04:28:11;9.88;;;2.25;;
69822;SDS011;57119;52.516;13.508;2023-08-17T04:30:37;5.93;;;2.27;;
69822;SDS011;57119;52.516;13.508;2023-08-17T04:33:03;6.05;;;2.10;;
69822;SDS011;57119;52.516;13.508;2023-08-17T04:35:29;5.82;;;2.25;;
69822;SDS011;57119;52.516;13.508;2023-08-17T04:37:54;4.67;;;1.90;;
69822;SDS011;57119;52.516;13.508;2023-08-17T04:40:19;7.27;;;2.10;;
69822;SDS011;57119;52.516;13.508;2023-08-17T04:42:45;9.97;;;2.10;;
69822;SDS011;57119;52.516;13.508;2023-08-17T04:45:10;8.10;;;2.07;;
69822;SDS011;57119;52.516;13.508;2023-08-17T04:47:35;7.80;;;2.50;;
69822;SDS011;57119;52.516;13.508;2023-08-17T04:50:01;5.93;;;2.47;;
69822;SDS011;57119;52.516;13.508;2023-08-17T04:52:26;5.70;;;1.80;;
69822;SDS011;57119;52.516;13.508;2023-08-17T04:54:51;5.43;;;1.87;;
69822;SDS011;57119;52.516;13.508;2023-08-17T04:57:17;5.10;;;2.15;;
69822;SDS011;57119;52.516;13.508;2023-08-17T04:59:44;7.30;;;1.90;;
69822;SDS011;57119;52.516;13.508;2023-08-17T05:02:09;5.37;;;2.03;;
69822;SDS011;57119;52.516;13.508;2023-08-17T05:04:35;8.17;;;2.43;;
69822;SDS011;57119;52.516;13.508;2023-08-17T05:07:00;8.75;;;2.38;;
69822;SDS011;57119;52.516;13.508;2023-08-17T05:09:26;5.70;;;2.33;;
69822;SDS011;57119;52.516;13.508;2023-08-17T05:11:52;5.97;;;2.20;;
69822;SDS011;57119;52.516;13.508;2023-08-17T05:14:17;6.43;;;2.70;;
69822;SDS011;57119;52.516;13.508;2023-08-17T05:16:42;8.90;;;2.30;;
69822;SDS011;57119;52.516;13.508;2023-08-17T05:19:08;6.80;;;2.20;;
69822;SDS011;57119;52.516;13.508;2023-08-17T05:21:34;6.07;;;2.57;;
69822;SDS011;57119;52.516;13.508;2023-08-17T05:24:01;5.60;;;2.05;;
69822;SDS011;57119;52.516;13.508;2023-08-17T05:26:26;5.97;;;2.43;;
69822;SDS011;57119;52.516;13.508;2023-08-17T05:28:51;5.67;;;1.90;;
69822;SDS011;57119;52.516;13.508;2023-08-17T05:31:17;6.57;;;2.60;;
69822;SDS011;57119;52.516;13.508;2023-08-17T05:33:42;5.07;;;2.10;;
69822;SDS011;57119;52.516;13.508;2023-08-17T05:36:08;6.30;;;2.30;;
69822;SDS011;57119;52.516;13.508;2023-08-17T05:38:33;5.77;;;1.83;;
69822;SDS011;57119;52.516;13.508;2023-08-17T05:40:59;6.70;;;2.13;;
69822;SDS011;57119;52.516;13.508;2023-08-17T05:43:25;7.65;;;2.10;;
69822;SDS011;57119;52.516;13.508;2023-08-17T05:45:51;7.20;;;2.50;;
69822;SDS011;57119;52.516;13.508;2023-08-17T05:48:19;6.70;;;1.83;;
69822;SDS011;57119;52.516;13.508;2023-08-17T05:50:48;6.40;;;2.20;;
69822;SDS011;57119;52.516;13.508;2023-08-17T05:53:14;5.97;;;2.70;;
69822;SDS011;57119;52.516;13.508;2023-08-17T05:55:39;8.68;;;2.17;;
69822;SDS011;57119;52.516;13.508;2023-08-17T05:58:05;8.83;;;2.33;;
69822;SDS011;57119;52.516;13.508;2023-08-17T06:00:30;7.70;;;2.33;;
69822;SDS011;57119;52.516;13.508;2023-08-17T06:02:56;6.30;;;1.80;;
69822;SDS011;57119;52.516;13.508;2023-08-17T06:05:26;5.60;;;2.10;;
69822;SDS011;57119;52.516;13.508;2023-08-17T06:08:00;7.47;;;2.00;;
69822;SDS011;57119;52.516;13.508;2023-08-17T06:10:25;7.20;;;2.23;;
69822;SDS011;57119;52.516;13.508;2023-08-17T06:12:54;6.00;;;1.90;;
69822;SDS011;57119;52.516;13.508;2023-08-17T06:15:21;4.73;;;1.80;;
69822;SDS011;57119;52.516;13.508;2023-08-17T06:17:47;8.00;;;2.28;;
69822;SDS011;57119;52.516;13.508;2023-08-17T06:20:14;7.97;;;2.10;;
69822;SDS011;57119;52.516;13.508;2023-08-17T06:22:41;6.72;;;1.80;;
69822;SDS011;57119;52.516;13.508;2023-08-17T06:25:06;6.47;;;2.30;;
69822;SDS011;57119;52.516;13.508;2023-08-17T06:27:33;5.57;;;2.08;;
69822;SDS011;57119;52.516;13.508;2023-08-17T06:29:58;7.00;;;2.50;;
69822;SDS011;57119;52.516;13.508;2023-08-17T06:32:24;8.03;;;2.20;;
69822;SDS011;57119;52.516;13.508;2023-08-17T06:34:49;7.88;;;2.05;;
69822;SDS011;57119;52.516;13.508;2023-08-17T06:37:14;5.47;;;1.80;;
69822;SDS011;57119;52.516;13.508;2023-08-17T06:39:40;9.23;;;2.40;;
69822;SDS011;57119;52.516;13.508;2023-08-17T06:42:05;5.60;;;2.10;;
69822;SDS011;57119;52.516;13.508;2023-08-17T06:44:31;5.50;;;2.00;;
69822;SDS011;57119;52.516;13.508;2023-08-17T06:46:56;7.00;;;2.40;;
69822;SDS011;57119;52.516;13.508;2023-08-17T06:49:22;7.77;;;2.60;;
69822;SDS011;57119;52.516;13.508;2023-08-17T06:51:47;6.03;;;2.53;;
69822;SDS011;57119;52.516;13.508;2023-08-17T06:54:13;6.10;;;2.40;;
69822;SDS011;57119;52.516;13.508;2023-08-17T06:56:38;5.67;;;1.87;;
69822;SDS011;57119;52.516;13.508;2023-08-17T06:59:04;6.45;;;2.50;;
69822;SDS011;57119;52.516;13.508;2023-08-17T07:01:29;6.70;;;2.57;;
69822;SDS011;57119;52.516;13.508;2023-08-17T07:03:54;5.70;;;2.00;;
69822;SDS011;57119;52.516;13.508;2023-08-17T07:06:20;7.10;;;2.35;;
69822;SDS011;57119;52.516;13.508;2023-08-17T07:08:46;8.77;;;2.13;;
69822;SDS011;57119;52.516;13.508;2023-08-17T07:11:11;4.97;;;2.30;;
69822;SDS011;57119;52.516;13.508;2023-08-17T07:13:36;6.47;;;2.97;;
69822;SDS011;57119;52.516;13.508;2023-08-17T07:16:02;6.87;;;2.73;;
69822;SDS011;57119;52.516;13.508;2023-08-17T07:18:27;7.38;;;2.40;;
69822;SDS011;57119;52.516;13.508;2023-08-17T07:20:53;5.73;;;2.50;;
69822;SDS011;57119;52.516;13.508;2023-08-17T07:23:18;6.37;;;2.70;;
69822;SDS011;57119;52.516;13.508;2023-08-17T07:25:44;6.13;;;2.25;;
69822;SDS011;57119;52.516;13.508;2023-08-17T07:28:09;7.13;;;2.50;;
69822;SDS011;57119;52.516;13.508;2023-08-17T07:30:34;7.27;;;2.60;;
69822;SDS011;57119;52.516;13.508;2023-08-17T07:33:00;6.10;;;2.53;;
69822;SDS011;57119;52.516;13.508;2023-08-17T07:35:25;7.20;;;2.60;;
69822;SDS011;57119;52.516;13.508;2023-08-17T07:37:50;6.68;;;2.03;;
69822;SDS011;57119;52.516;13.508;2023-08-17T07:40:16;6.97;;;2.27;;
69822;SDS011;57119;52.516;13.508;2023-08-17T07:42:41;5.83;;;2.07;;
69822;SDS011;57119;52.516;13.508;2023-08-17T07:45:06;6.77;;;2.40;;
69822;SDS011;57119;52.516;13.508;2023-08-17T07:47:35;6.03;;;2.45;;
69822;SDS011;57119;52.516;13.508;2023-08-17T07:50:04;6.30;;;2.22;;
69822;SDS011;57119;52.516;13.508;2023-08-17T07:52:30;6.07;;;2.30;;
69822;SDS011;57119;52.516;13.508;2023-08-17T07:54:56;8.40;;;2.70;;
69822;SDS011;57119;52.516;13.508;2023-08-17T07:57:21;10.13;;;3.00;;
69822;SDS011;57119;52.516;13.508;2023-08-17T07:59:47;5.50;;;2.53;;
69822;SDS011;57119;52.516;13.508;2023-08-17T08:02:12;7.90;;;2.10;;
69822;SDS011;57119;52.516;13.508;2023-08-17T08:04:38;8.25;;;2.60;;
69822;SDS011;57119;52.516;13.508;2023-08-17T08:07:03;5.80;;;2.67;;
69822;SDS011;57119;52.516;13.508;2023-08-17T08:09:28;7.33;;;2.87;;
69822;SDS011;57119;52.516;13.508;2023-08-17T08:11:57;7.57;;;2.90;;
69822;SDS011;57119;52.516;13.508;2023-08-17T08:14:22;8.05;;;3.00;;
69822;SDS011;57119;52.516;13.508;2023-08-17T08:16:47;6.27;;;2.90;;
69822;SDS011;57119;52.516;13.508;2023-08-17T08:19:13;8.27;;;2.30;;
69822;SDS011;57119;52.516;13.508;2023-08-17T08:21:38;6.30;;;2.80;;
69822;SDS011;57119;52.516;13.508;2023-08-17T08:24:04;7.77;;;2.97;;
69822;SDS011;57119;52.516;13.508;2023-08-17T08:26:29;7.05;;;3.10;;
69822;SDS011;57119;52.516;13.508;2023-08-17T08:28:55;7.67;;;3.43;;
69822;SDS011;57119;52.516;13.508;2023-08-17T08:31:20;7.87;;;3.07;;
69822;SDS011;57119;52.516;13.508;2023-08-17T08:33:45;6.83;;;2.60;;
69822;SDS011;57119;52.516;13.508;2023-08-17T08:36:11;9.50;;;2.90;;
69822;SDS011;57119;52.516;13.508;2023-08-17T08:38:37;5.90;;;2.60;;
69822;SDS011;57119;52.516;13.508;2023-08-17T08:41:02;7.43;;;3.30;;
69822;SDS011;57119;52.516;13.508;2023-08-17T08:43:28;6.90;;;3.13;;
69822;SDS011;57119;52.516;13.508;2023-08-17T08:45:54;6.13;;;3.10;;
69822;SDS011;57119;52.516;13.508;2023-08-17T08:48:20;6.13;;;3.07;;
69822;SDS011;57119;52.516;13.508;2023-08-17T08:50:48;7.40;;;2.83;;
69822;SDS011;57119;52.516;13.508;2023-08-17T08:53:19;7.25;;;2.83;;
69822;SDS011;57119;52.516;13.508;2023-08-17T08:55:54;7.60;;;3.30;;
69822;SDS011;57119;52.516;13.508;2023-08-17T08:58:22;8.80;;;2.70;;
69822;SDS011;57119;52.516;13.508;2023-08-17T09:00:49;7.77;;;2.90;;
69822;SDS011;57119;52.516;13.508;2023-08-17T09:03:15;6.97;;;2.90;;
69822;SDS011;57119;52.516;13.508;2023-08-17T09:05:47;7.60;;;3.00;;
69822;SDS011;57119;52.516;13.508;2023-08-17T09:08:14;6.78;;;3.10;;
69822;SDS011;57119;52.516;13.508;2023-08-17T09:10:40;7.00;;;3.13;;
69822;SDS011;57119;52.516;13.508;2023-08-17T09:13:07;7.32;;;2.97;;
69822;SDS011;57119;52.516;13.508;2023-08-17T09:15:33;6.50;;;3.20;;
69822;SDS011;57119;52.516;13.508;2023-08-17T09:17:59;12.77;;;3.40;;
69822;SDS011;57119;52.516;13.508;2023-08-17T09:20:37;7.43;;;3.30;;
69822;SDS011;57119;52.516;13.508;2023-08-17T09:23:19;7.35;;;2.88;;
69822;SDS011;57119;52.516;13.508;2023-08-17T09:25:46;7.68;;;3.55;;
69822;SDS011;57119;52.516;13.508;2023-08-17T09:28:17;7.75;;;3.45;;
69822;SDS011;57119;52.516;13.508;2023-08-17T09:31:02;8.73;;;3.83;;
69822;SDS011;57119;52.516;13.508;2023-08-17T09:33:30;5.93;;;3.40;;
69822;SDS011;57119;52.516;13.508;2023-08-17T09:35:57;6.03;;;3.63;;
69822;SDS011;57119;52.516;13.508;2023-08-17T09:38:23;7.05;;;3.55;;
69822;SDS011;57119;52.516;13.508;2023-08-17T09:40:49;7.13;;;2.83;;
69822;SDS011;57119;52.516;13.508;2023-08-17T09:43:15;6.60;;;3.77;;
69822;SDS011;57119;52.516;13.508;2023-08-17T09:45:43;8.13;;;3.70;;
69822;SDS011;57119;52.516;13.508;2023-08-17T09:48:11;7.68;;;3.42;;
69822;SDS011;57119;52.516;13.508;2023-08-17T09:50:41;7.18;;;3.05;;
69822;SDS011;57119;52.516;13.508;2023-08-17T09:53:07;6.23;;;3.53;;
69822;SDS011;57119;52.516;13.508;2023-08-17T09:55:37;7.75;;;4.07;;
69822;SDS011;57119;52.516;13.508;2023-08-17T09:58:05;8.48;;;3.70;;
69822;SDS011;57119;52.516;13.508;2023-08-17T10:00:33;7.18;;;3.20;;
69822;SDS011;57119;52.516;13.508;2023-08-17T10:02:58;7.00;;;3.23;;
69822;SDS011;57119;52.516;13.508;2023-08-17T10:05:28;7.47;;;3.08;;
69822;SDS011;57119;52.516;13.508;2023-08-17T10:07:57;6.30;;;3.10;;
69822;SDS011;57119;52.516;13.508;2023-08-17T10:10:25;5.93;;;3.53;;
69822;SDS011;57119;52.516;13.508;2023-08-17T10:15:34;6.30;;;3.50;;
69822;SDS011;57119;52.516;13.508;2023-08-17T10:21:06;6.97;;;3.58;;
69822;SDS011;57119;52.516;13.508;2023-08-17T10:23:35;7.88;;;4.28;;
69822;SDS011;57119;52.516;13.508;2023-08-17T10:26:01;10.03;;;4.03;;
69822;SDS011;57119;52.516;13.508;2023-08-17T10:28:28;9.77;;;3.67;;
69822;SDS011;57119;52.516;13.508;2023-08-17T10:30:55;9.32;;;3.80;;
69822;SDS011;57119;52.516;13.508;2023-08-17T10:33:20;8.73;;;3.80;;
69822;SDS011;57119;52.516;13.508;2023-08-17T10:35:46;7.53;;;3.90;;
69822;SDS011;57119;52.516;13.508;2023-08-17T10:38:12;6.78;;;3.40;;
69822;SDS011;57119;52.516;13.508;2023-08-17T10:40:39;8.13;;;3.63;;
69822;SDS011;57119;52.516;13.508;2023-08-17T10:43:06;7.43;;;3.78;;
69822;SDS011;57119;52.516;13.508;2023-08-17T10:45:32;7.77;;;4.27;;
69822;SDS011;57119;52.516;13.508;2023-08-17T10:50:37;8.00;;;3.53;;
69822;SDS011;57119;52.516;13.508;2023-08-17T10:53:04;9.68;;;3.40;;
69822;SDS011;57119;52.516;13.508;2023-08-17T10:55:40;7.85;;;3.97;;
69822;SDS011;57119;52.516;13.508;2023-08-17T10:58:09;6.60;;;3.57;;
69822;SDS011;57119;52.516;13.508;2023-08-17T11:00:36;6.75;;;4.03;;
69822;SDS011;57119;52.516;13.508;2023-08-17T11:03:05;7.05;;;4.30;;
69822;SDS011;57119;52.516;13.508;2023-08-17T11:08:09;7.43;;;4.55;;
69822;SDS011;57119;52.516;13.508;2023-08-17T11:11:02;6.53;;;4.27;;
69822;SDS011;57119;52.516;13.508;2023-08-17T11:13:35;6.93;;;4.60;;
69822;SDS011;57119;52.516;13.508;2023-08-17T11:16:02;7.65;;;5.00;;
69822;SDS011;57119;52.516;13.508;2023-08-17T11:18:28;7.00;;;5.45;;
69822;SDS011;57119;52.516;13.508;2023-08-17T11:20:54;6.70;;;4.88;;
69822;SDS011;57119;52.516;13.508;2023-08-17T11:23:20;8.30;;;5.70;;
69822;SDS011;57119;52.516;13.508;2023-08-17T11:25:47;8.15;;;4.93;;
69822;SDS011;57119;52.516;13.508;2023-08-17T11:28:12;7.07;;;5.10;;
69822;SDS011;57119;52.516;13.508;2023-08-17T11:30:41;9.35;;;4.75;;
69822;SDS011;57119;52.516;13.508;2023-08-17T11:33:07;6.65;;;3.67;;
69822;SDS011;57119;52.516;13.508;2023-08-17T11:35:33;6.38;;;4.03;;
69822;SDS011;57119;52.516;13.508;2023-08-17T11:37:59;8.27;;;4.30;;
69822;SDS011;57119;52.516;13.508;2023-08-17T11:40:25;7.55;;;4.38;;
69822;SDS011;57119;52.516;13.508;2023-08-17T11:42:52;9.73;;;4.30;;
69822;SDS011;57119;52.516;13.508;2023-08-17T11:45:18;7.30;;;4.45;;
69822;SDS011;57119;52.516;13.508;2023-08-17T11:47:43;7.93;;;4.80;;
69822;SDS011;57119;52.516;13.508;2023-08-17T11:50:10;7.60;;;4.38;;
69822;SDS011;57119;52.516;13.508;2023-08-17T11:52:36;7.95;;;4.45;;
69822;SDS011;57119;52.516;13.508;2023-08-17T11:55:02;6.30;;;3.90;;
69822;SDS011;57119;52.516;13.508;2023-08-17T11:57:32;7.68;;;4.70;;
69822;SDS011;57119;52.516;13.508;2023-08-17T11:59:58;9.30;;;4.95;;
69822;SDS011;57119;52.516;13.508;2023-08-17T12:02:25;8.07;;;4.70;;
69822;SDS011;57119;52.516;13.508;2023-08-17T12:04:52;6.60;;;4.22;;
69822;SDS011;57119;52.516;13.508;2023-08-17T12:07:18;7.40;;;4.32;;
69822;SDS011;57119;52.516;13.508;2023-08-17T12:09:45;7.20;;;4.32;;
69822;SDS011;57119;52.516;13.508;2023-08-17T12:12:11;7.68;;;4.88;;
69822;SDS011;57119;52.516;13.508;2023-08-17T12:14:40;8.13;;;4.87;;
69822;SDS011;57119;52.516;13.508;2023-08-17T12:17:13;8.02;;;4.78;;
69822;SDS011;57119;52.516;13.508;2023-08-17T12:19:42;6.70;;;4.25;;
69822;SDS011;57119;52.516;13.508;2023-08-17T12:22:08;9.27;;;4.95;;
69822;SDS011;57119;52.516;13.508;2023-08-17T12:24:34;15.77;;;11.70;;
69822;SDS011;57119;52.516;13.508;2023-08-17T12:27:02;7.75;;;5.82;;
69822;SDS011;57119;52.516;13.508;2023-08-17T12:29:28;9.25;;;6.28;;
69822;SDS011;57119;52.516;13.508;2023-08-17T12:31:56;8.47;;;5.47;;
69822;SDS011;57119;52.516;13.508;2023-08-17T12:34:22;9.10;;;6.18;;
69822;SDS011;57119;52.516;13.508;2023-08-17T12:36:48;8.63;;;5.40;;
69822;SDS011;57119;52.516;13.508;2023-08-17T12:39:15;7.47;;;5.28;;
69822;SDS011;57119;52.516;13.508;2023-08-17T12:41:40;6.95;;;5.07;;
69822;SDS011;57119;52.516;13.508;2023-08-17T12:44:06;8.50;;;5.07;;
69822;SDS011;57119;52.516;13.508;2023-08-17T12:46:31;9.15;;;5.50;;
69822;SDS011;57119;52.516;13.508;2023-08-17T12:48:59;6.67;;;5.27;;
69822;SDS011;57119;52.516;13.508;2023-08-17T12:51:24;7.68;;;5.68;;
69822;SDS011;57119;52.516;13.508;2023-08-17T12:53:50;8.77;;;5.87;;
69822;SDS011;57119;52.516;13.508;2023-08-17T12:56:15;8.70;;;5.73;;
69822;SDS011;57119;52.516;13.508;2023-08-17T12:58:41;6.93;;;5.60;;
69822;SDS011;57119;52.516;13.508;2023-08-17T13:01:06;7.90;;;5.57;;
69822;SDS011;57119;52.516;13.508;2023-08-17T13:03:32;9.33;;;6.33;;
69822;SDS011;57119;52.516;13.508;2023-08-17T13:05:57;8.57;;;6.10;;
69822;SDS011;57119;52.516;13.508;2023-08-17T13:08:22;7.78;;;6.50;;
69822;SDS011;57119;52.516;13.508;2023-08-17T13:10:48;7.97;;;5.87;;
69822;SDS011;57119;52.516;13.508;2023-08-17T13:13:13;9.20;;;6.00;;
69822;SDS011;57119;52.516;13.508;2023-08-17T13:15:39;8.18;;;7.07;;
69822;SDS011;57119;52.516;13.508;2023-08-17T13:18:06;7.97;;;6.45;;
69822;SDS011;57119;52.516;13.508;2023-08-17T13:20:31;8.13;;;5.60;;
69822;SDS011;57119;52.516;13.508;2023-08-17T13:22:57;8.10;;;5.83;;
69822;SDS011;57119;52.516;13.508;2023-08-17T13:25:22;9.27;;;6.80;;
69822;SDS011;57119;52.516;13.508;2023-08-17T13:27:47;7.35;;;6.07;;
69822;SDS011;57119;52.516;13.508;2023-08-17T13:30:13;8.70;;;6.43;;
69822;SDS011;57119;52.516;13.508;2023-08-17T13:32:38;7.10;;;5.80;;
69822;SDS011;57119;52.516;13.508;2023-08-17T13:35:04;7.18;;;5.10;;
69822;SDS011;57119;52.516;13.508;2023-08-17T13:37:30;6.47;;;4.63;;
69822;SDS011;57119;52.516;13.508;2023-08-17T13:39:56;7.23;;;5.17;;
69822;SDS011;57119;52.516;13.508;2023-08-17T13:42:23;9.00;;;6.47;;
69822;SDS011;57119;52.516;13.508;2023-08-17T13:44:48;9.03;;;6.07;;
69822;SDS011;57119;52.516;13.508;2023-08-17T13:47:13;10.90;;;9.10;;
69822;SDS011;57119;52.516;13.508;2023-08-17T13:49:39;8.75;;;4.63;;
69822;SDS011;57119;52.516;13.508;2023-08-17T13:52:05;7.37;;;5.77;;
69822;SDS011;57119;52.516;13.508;2023-08-17T13:54:30;7.55;;;5.28;;
69822;SDS011;57119;52.516;13.508;2023-08-17T13:56:56;7.37;;;5.90;;
69822;SDS011;57119;52.516;13.508;2023-08-17T13:59:21;7.40;;;5.87;;
69822;SDS011;57119;52.516;13.508;2023-08-17T14:01:47;7.38;;;4.22;;
69822;SDS011;57119;52.516;13.508;2023-08-17T14:04:12;7.40;;;5.53;;
69822;SDS011;57119;52.516;13.508;2023-08-17T14:06:39;8.88;;;5.63;;
69822;SDS011;57119;52.516;13.508;2023-08-17T14:09:05;6.53;;;5.25;;
69822;SDS011;57119;52.516;13.508;2023-08-17T14:11:31;8.57;;;5.83;;
69822;SDS011;57119;52.516;13.508;2023-08-17T14:13:56;7.82;;;5.85;;
69822;SDS011;57119;52.516;13.508;2023-08-17T14:16:22;7.13;;;4.87;;
69822;SDS011;57119;52.516;13.508;2023-08-17T14:18:47;6.43;;;4.77;;
69822;SDS011;57119;52.516;13.508;2023-08-17T14:21:13;6.83;;;5.57;;
69822;SDS011;57119;52.516;13.508;2023-08-17T14:23:38;8.48;;;5.30;;
69822;SDS011;57119;52.516;13.508;2023-08-17T14:26:04;8.67;;;6.33;;
69822;SDS011;57119;52.516;13.508;2023-08-17T14:28:29;7.78;;;4.40;;
69822;SDS011;57119;52.516;13.508;2023-08-17T14:30:55;7.57;;;5.07;;
69822;SDS011;57119;52.516;13.508;2023-08-17T14:33:20;10.30;;;7.77;;
69822;SDS011;57119;52.516;13.508;2023-08-17T14:35:46;8.57;;;6.43;;
69822;SDS011;57119;52.516;13.508;2023-08-17T14:38:11;8.18;;;6.38;;
69822;SDS011;57119;52.516;13.508;2023-08-17T14:40:47;6.97;;;5.40;;